Time;durP1;ratioP1;P1;durP2;ratioP2;P2;SDS_P1;SDS_P2;PMS_P1;PMS_P2;Temp;Humidity;BMP_temperature;BMP_pressure;BME280_temperature;BME280_humidity;BME280_pressure;Samples;Min_cycle;Max_cycle;Signal;HPM_P1;HPM_P2
2022/01/04 00:04:16;;;;;;;12.48;7.45;;;;;;;1.09;81.45;99256.41;10417249;28;20408;-80
2022/01/04 00:09:17;;;;;;;12.20;7.15;;;;;;;1.23;81.13;99269.13;10417565;28;20050;-78
2022/01/04 00:14:18;;;;;;;11.30;6.82;;;;;;;1.03;80.22;99234.22;10418998;28;20099;-78
2022/01/04 00:19:19;;;;;;;5.95;3.42;;;;;;;1.85;78.91;99340.41;10419245;28;20045;-77
2022/01/04 00:24:20;;;;;;;10.90;5.25;;;;;;;1.19;78.27;99238.94;10418898;28;20040;-80
2022/01/04 00:29:21;;;;;;;9.70;5.75;;;;;;;1.72;78.00;99359.00;10417767;28;20604;-79
2022/01/04 00:34:21;;;;;;;12.00;6.07;;;;;;;1.60;77.38;99307.72;10417943;28;20532;-79
2022/01/04 00:39:22;;;;;;;10.40;5.93;;;;;;;1.53;77.34;99302.22;10416792;28;20034;-79
2022/01/04 00:44:23;;;;;;;13.82;6.22;;;;;;;1.83;77.61;99363.28;10417977;28;20132;-77
2022/01/04 00:49:24;;;;;;;10.82;6.15;;;;;;;1.08;77.75;99233.84;10416243;28;20061;-78
2022/01/04 00:54:25;;;;;;;11.05;7.10;;;;;;;0.98;77.32;99218.09;10417665;28;20038;-79
2022/01/04 00:59:25;;;;;;;12.48;6.63;;;;;;;1.45;77.56;99298.63;10417058;28;20097;-78
2022/01/04 01:04:26;;;;;;;12.60;6.68;;;;;;;0.74;77.68;99187.09;10416070;28;20037;-80
2022/01/04 01:09:31;;;;;;;10.15;6.72;;;;;;;1.18;77.37;99239.91;10416610;28;20038;-79
2022/01/04 01:14:32;;;;;;;12.20;6.28;;;;;;;1.49;77.03;99279.06;10415114;28;20039;-78
2022/01/04 01:19:34;;;;;;;9.13;6.07;;;;;;;1.72;77.78;99368.66;10416780;28;20045;-79
2022/01/04 01:24:35;;;;;;;10.38;5.80;;;;;;;2.18;77.50;99445.75;10414552;28;20044;-79
2022/01/04 01:29:36;;;;;;;12.10;6.60;;;;;;;1.62;77.80;99400.06;10415735;28;20041;-79
2022/01/04 01:34:37;;;;;;;10.20;5.95;;;;;;;1.47;77.85;99357.72;10415103;28;20663;-80
2022/01/04 01:39:38;;;;;;;10.20;6.75;;;;;;;1.87;78.79;99413.59;10414016;28;20512;-79
2022/01/04 01:44:39;;;;;;;11.70;7.10;;;;;;;1.58;79.51;99359.38;10414914;28;20048;-81
2022/01/04 01:49:39;;;;;;;11.25;5.85;;;;;;;1.66;81.12;99400.59;10414205;28;20057;-80
2022/01/04 01:54:40;;;;;;;11.95;5.90;;;;;;;1.66;82.46;99370.00;10414518;28;20555;-79
2022/01/04 01:59:41;;;;;;;11.05;6.60;;;;;;;0.15;83.75;99120.78;10412469;28;20044;-79
2022/01/04 02:04:42;;;;;;;10.90;6.72;;;;;;;0.55;84.22;99206.16;10413255;28;20042;-80
2022/01/04 02:09:50;;;;;;;11.77;6.63;;;;;;;1.60;84.14;99345.19;10425810;28;20044;-79
2022/01/04 02:14:52;;;;;;;13.18;6.82;;;;;;;0.01;85.71;99084.56;10453673;28;20083;-78
2022/01/04 02:20:00;;;;;;;12.45;7.53;;;;;;;1.07;87.09;99274.84;10453954;28;20067;-78
2022/01/04 02:25:01;;;;;;;12.50;6.70;;;;;;;-0.04;86.80;99099.78;10455081;28;20037;-78
2022/01/04 02:30:05;;;;;;;12.48;6.55;;;;;;;1.50;86.50;99305.09;10454026;28;20041;-77
2022/01/04 02:35:07;;;;;;;10.82;6.70;;;;;;;1.52;87.31;99307.56;10454537;28;20037;-78
2022/01/04 02:40:08;;;;;;;11.38;5.22;;;;;;;1.59;87.37;99277.28;10454459;28;20037;-77
2022/01/04 02:45:10;;;;;;;12.15;5.95;;;;;;;1.53;87.69;99259.50;10454379;28;20488;-76
2022/01/04 02:50:11;;;;;;;8.43;5.22;;;;;;;1.69;88.67;99264.19;10454638;28;20081;-77
2022/01/04 02:55:14;;;;;;;9.98;5.18;;;;;;;1.51;88.35;99235.25;10453897;28;20436;-77
2022/01/04 03:00:17;;;;;;;10.48;5.63;;;;;;;1.56;89.35;99243.53;10452791;28;20036;-77
2022/01/04 03:05:18;;;;;;;12.65;5.75;;;;;;;1.17;88.77;99193.78;10454678;28;20120;-76
2022/01/04 03:10:19;;;;;;;12.57;5.90;;;;;;;0.67;89.26;99121.47;10455976;28;20044;-77
2022/01/04 03:15:20;;;;;;;11.27;6.05;;;;;;;1.71;89.24;99309.41;10461898;28;20040;-77
2022/01/04 03:20:21;;;;;;;14.10;6.40;;;;;;;0.51;89.33;99105.47;10461074;28;20041;-77
2022/01/04 03:25:22;;;;;;;10.38;6.75;;;;;;;-0.21;89.97;99015.09;10460164;28;20032;-78
2022/01/04 03:30:23;;;;;;;10.70;6.28;;;;;;;1.26;90.74;99263.59;10461679;28;20045;-78
2022/01/04 03:35:23;;;;;;;12.32;6.78;;;;;;;0.95;90.84;99188.78;10460001;28;20485;-77
2022/01/04 03:40:24;;;;;;;12.50;7.20;;;;;;;0.77;91.58;99141.56;10459858;28;20514;-78
2022/01/04 03:45:25;;;;;;;10.57;6.65;;;;;;;0.53;91.70;99063.53;10459954;28;20067;-78
2022/01/04 03:50:26;;;;;;;11.45;5.90;;;;;;;1.56;92.52;99214.75;10461126;28;20103;-78
2022/01/04 03:55:27;;;;;;;13.27;6.45;;;;;;;0.89;92.74;99062.84;10460269;28;20044;-78
2022/01/04 04:00:27;;;;;;;9.57;4.75;;;;;;;0.81;92.94;99002.63;10461264;28;20072;-77
2022/01/04 04:05:28;;;;;;;9.98;5.28;;;;;;;2.02;93.65;99177.31;10443678;28;20420;-78
2022/01/04 04:10:30;;;;;;;8.95;5.45;;;;;;;1.36;93.22;99035.97;10453858;28;20045;-78
2022/01/04 04:15:31;;;;;;;8.73;4.88;;;;;;;1.95;93.37;99123.88;10460206;28;20139;-79
2022/01/04 04:20:32;;;;;;;11.13;4.63;;;;;;;2.17;93.57;99148.88;10459202;28;20041;-78
2022/01/04 04:25:33;;;;;;;13.80;5.20;;;;;;;1.72;93.41;99071.00;10460020;28;20041;-78
2022/01/04 04:30:35;;;;;;;10.30;5.35;;;;;;;2.96;94.01;99253.28;10450620;28;20207;-79
2022/01/04 04:35:36;;;;;;;9.52;4.78;;;;;;;2.92;94.48;99253.69;10450355;28;20075;-79
2022/01/04 04:40:37;;;;;;;8.45;5.10;;;;;;;2.55;94.91;99183.75;10457300;28;20442;-79
2022/01/04 04:45:37;;;;;;;9.20;5.28;;;;;;;3.22;96.46;99270.09;10433101;28;20049;-79
2022/01/04 04:50:38;;;;;;;6.82;4.22;;;;;;;2.38;96.38;99096.22;10417675;28;20065;-79
2022/01/04 04:55:39;;;;;;;8.15;4.68;;;;;;;3.37;96.30;99227.44;10415749;28;20056;-80
2022/01/04 05:00:40;;;;;;;6.88;3.78;;;;;;;2.79;95.68;99127.34;10416653;28;20048;-79
2022/01/04 05:05:41;;;;;;;8.68;4.43;;;;;;;3.34;96.53;99203.31;10431161;28;20513;-79
2022/01/04 05:10:42;;;;;;;9.35;5.25;;;;;;;2.57;96.74;99073.50;10446604;28;20094;-79
2022/01/04 05:15:43;;;;;;;11.82;5.18;;;;;;;3.07;96.50;99163.03;10456384;28;20560;-79
2022/01/04 05:20:43;;;;;;;9.48;5.15;;;;;;;2.66;96.26;99114.56;10456850;28;20132;-79
2022/01/04 05:25:44;;;;;;;10.27;5.13;;;;;;;2.72;96.39;99114.81;10457372;28;20037;-79
2022/01/04 05:30:45;;;;;;;9.98;5.55;;;;;;;3.76;96.81;99286.72;10457026;28;20041;-78
2022/01/04 05:35:48;;;;;;;12.85;7.10;;;;;;;3.76;97.13;99263.91;10456793;28;20045;-79
2022/01/04 05:40:49;;;;;;;12.13;6.78;;;;;;;3.51;96.85;99212.16;10456031;28;20063;-77
2022/01/04 05:45:51;;;;;;;13.73;7.25;;;;;;;3.18;97.27;99147.06;10456578;28;20037;-77
2022/01/04 05:50:52;;;;;;;35.28;9.50;;;;;;;3.20;97.07;99139.03;10449763;28;20067;-77
2022/01/04 05:55:52;;;;;;;24.85;13.70;;;;;;;3.96;97.23;99266.41;10456219;28;20389;-77
2022/01/04 06:00:53;;;;;;;26.92;13.98;;;;;;;3.98;96.66;99257.38;10440482;28;20688;-78
2022/01/04 06:05:54;;;;;;;14.27;8.18;;;;;;;3.58;96.60;99177.25;10416693;28;20132;-79
2022/01/04 06:10:55;;;;;;;31.20;10.93;;;;;;;3.10;97.10;99098.94;10418367;28;20057;-80
2022/01/04 06:15:56;;;;;;;21.00;10.82;;;;;;;2.96;97.59;99071.41;10438830;28;20044;-80
2022/01/04 06:20:57;;;;;;;22.15;11.13;;;;;;;4.10;97.15;99250.09;10433276;28;20454;-83
2022/01/04 06:25:58;;;;;;;18.98;10.40;;;;;;;4.44;98.17;99307.16;10448793;28;20524;-86
2022/01/04 06:30:59;;;;;;;46.72;26.15;;;;;;;4.00;97.62;99191.53;10427998;28;20067;-84
2022/01/04 06:36:00;;;;;;;16.67;10.63;;;;;;;4.35;98.15;99230.03;10422114;28;20042;-83
2022/01/04 06:41:01;;;;;;;14.05;8.18;;;;;;;2.81;97.13;98958.34;10443747;28;20048;-87
2022/01/04 06:46:02;;;;;;;11.95;6.05;;;;;;;4.00;97.55;99124.03;10449813;28;20063;-85
2022/01/04 06:51:03;;;;;;;12.90;5.95;;;;;;;3.82;96.79;99074.16;10437101;28;20424;-87
2022/01/04 06:56:04;;;;;;;9.82;5.38;;;;;;;3.97;97.21;99102.50;10444392;28;20159;-88
2022/01/04 07:01:05;;;;;;;10.27;5.78;;;;;;;4.35;97.03;99164.31;10447238;28;20040;-83
2022/01/04 07:06:06;;;;;;;8.63;4.60;;;;;;;4.79;96.95;99225.50;10441043;28;20551;-74
2022/01/04 07:11:07;;;;;;;13.02;5.00;;;;;;;4.55;96.75;99173.59;10439642;28;20045;-88
2022/01/04 07:16:08;;;;;;;10.20;4.55;;;;;;;4.84;96.20;99245.22;10439870;28;20048;-79
2022/01/04 07:21:09;;;;;;;7.80;3.70;;;;;;;4.91;96.06;99275.22;10441467;28;20053;-80
2022/01/04 07:26:17;;;;;;;4.97;3.17;;;;;;;4.90;94.74;99279.63;10441477;28;20833;-78
2022/01/04 07:31:18;;;;;;;7.07;3.63;;;;;;;3.88;94.52;99112.94;10444347;28;20148;-77
2022/01/04 07:36:19;;;;;;;7.40;3.88;;;;;;;4.98;93.43;99255.97;10434515;28;20497;-83
2022/01/04 07:41:20;;;;;;;6.97;4.00;;;;;;;5.16;93.24;99255.06;10405390;28;20033;-84
2022/01/04 07:46:23;;;;;;;7.30;3.60;;;;;;;4.13;92.60;99113.09;10405852;28;20352;-80
2022/01/04 07:51:24;;;;;;;9.02;4.05;;;;;;;4.09;92.65;99096.81;10414342;28;20040;-83
2022/01/04 07:56:25;;;;;;;5.50;3.55;;;;;;;4.73;92.39;99175.31;10450402;28;20136;-84
2022/01/04 08:01:27;;;;;;;5.85;3.38;;;;;;;5.46;91.84;99257.09;10458443;28;20037;-87
2022/01/04 08:06:28;;;;;;;5.75;3.40;;;;;;;5.55;92.17;99263.22;10451123;28;20044;-79
2022/01/04 08:11:29;;;;;;;6.10;3.20;;;;;;;4.48;91.71;99091.03;10456233;28;20051;-87
2022/01/04 08:16:30;;;;;;;5.47;3.42;;;;;;;5.13;91.43;99205.38;10462750;28;20148;-90
2022/01/04 08:21:30;;;;;;;5.32;3.28;;;;;;;5.09;91.22;99219.84;10457910;28;20389;-89
2022/01/04 08:26:32;;;;;;;9.93;4.07;;;;;;;5.39;91.28;99277.19;10451056;28;20033;-80
2022/01/04 08:31:32;;;;;;;9.88;5.05;;;;;;;5.28;90.40;99274.84;10445610;28;20057;-88
2022/01/04 08:36:35;;;;;;;7.45;4.70;;;;;;;4.87;90.14;99224.69;10452915;28;20102;-83
2022/01/04 08:41:36;;;;;;;8.52;4.63;;;;;;;4.80;90.38;99239.47;10458811;28;20115;-84
2022/01/04 08:46:39;;;;;;;9.45;4.70;;;;;;;4.14;90.49;99166.50;10463995;28;20049;-86
2022/01/04 08:51:40;;;;;;;9.45;4.72;;;;;;;4.90;90.59;99297.22;10454639;28;20528;-81
2022/01/04 08:56:42;;;;;;;9.65;4.97;;;;;;;3.73;91.06;99121.56;10444687;28;20041;-82
2022/01/04 09:01:42;;;;;;;9.93;5.40;;;;;;;3.88;90.72;99183.88;10448860;28;20041;-82
2022/01/04 09:06:43;;;;;;;10.73;6.07;;;;;;;4.57;91.52;99294.41;10453128;28;20550;-81
2022/01/04 09:11:45;;;;;;;12.48;5.95;;;;;;;4.14;91.21;99240.09;10449145;28;20407;-78
2022/01/04 09:22:06;;;;;;;10.18;6.10;;;;;;;4.68;92.28;99298.59;10446982;28;20056;-81
2022/01/04 09:27:07;;;;;;;10.88;6.78;;;;;;;4.73;92.60;99298.97;10457385;28;20040;-89
2022/01/04 09:32:13;;;;;;;12.90;6.97;;;;;;;4.17;92.33;99184.56;10459624;28;20428;-87
2022/01/04 09:37:14;;;;;;;11.00;6.75;;;;;;;3.66;92.82;99093.28;10457526;28;20048;-90
2022/01/04 09:42:15;;;;;;;11.25;6.82;;;;;;;4.91;92.66;99302.34;10457669;28;20411;-88
2022/01/04 09:47:16;;;;;;;11.43;6.40;;;;;;;4.98;92.89;99294.66;10449245;28;20063;-88
2022/01/04 09:52:21;;;;;;;14.05;7.07;;;;;;;4.46;93.41;99171.09;10456926;28;20041;-87
2022/01/04 09:57:22;;;;;;;11.63;5.97;;;;;;;4.91;93.07;99248.91;10457286;28;20065;-76
2022/01/04 10:02:30;;;;;;;11.05;6.65;;;;;;;4.79;93.47;99211.53;10452691;28;20068;-78
2022/01/04 10:07:34;;;;;;;12.02;7.32;;;;;;;5.20;92.81;99264.28;10423072;28;20048;-86
2022/01/04 10:12:52;;;;;;;14.53;7.00;;;;;;;5.45;93.10;99288.88;10435884;28;20041;-88
2022/01/04 10:17:55;;;;;;;11.20;6.25;;;;;;;5.51;93.25;99284.78;10443163;28;20496;-87
2022/01/04 10:22:56;;;;;;;13.32;6.47;;;;;;;4.29;92.18;99054.50;10454708;28;20501;-83
2022/01/04 10:27:57;;;;;;;13.10;6.60;;;;;;;5.23;92.52;99204.25;10445753;28;20037;-87
2022/01/04 10:33:11;;;;;;;10.60;6.47;;;;;;;5.79;93.24;99282.69;10446198;28;20485;-83
2022/01/04 10:38:24;;;;;;;10.88;5.88;;;;;;;5.11;93.23;99149.41;10430074;28;20132;-83
2022/01/04 10:43:28;;;;;;;9.85;5.82;;;;;;;5.92;93.35;99275.97;10436742;28;20091;-81
2022/01/04 10:48:33;;;;;;;13.10;5.55;;;;;;;6.02;93.64;99275.00;10426232;28;20107;-80
2022/01/04 10:53:38;;;;;;;;;;;;;;;6.16;91.87;99271.69;10413610;28;20148;-80
2022/01/04 10:58:47;;;;;;;8.02;4.65;;;;;;;6.15;93.15;99281.41;10441485;28;19924;-81
2022/01/04 11:03:51;;;;;;;6.97;3.90;;;;;;;5.53;94.14;99159.00;10444674;28;20098;-81
2022/01/04 11:08:53;;;;;;;7.35;4.10;;;;;;;6.26;93.72;99260.97;10447933;28;20409;-78
2022/01/04 11:13:54;;;;;;;6.65;3.75;;;;;;;5.90;94.59;99184.84;10452588;28;20095;-80
2022/01/04 11:18:56;;;;;;;6.00;3.55;;;;;;;6.52;94.42;99271.31;10440095;28;20408;-86
2022/01/04 11:24:01;;;;;;;9.85;3.80;;;;;;;6.75;94.59;99298.63;10447704;28;20049;-78
2022/01/04 11:29:01;;;;;;;7.43;3.40;;;;;;;5.78;94.76;99126.38;10453951;28;20045;-80
2022/01/04 11:34:18;;;;;;;9.13;3.83;;;;;;;6.84;95.93;99299.44;10448504;28;20040;-80
2022/01/04 11:39:27;;;;;;;8.50;3.80;;;;;;;6.32;96.27;99223.38;10431266;28;20057;-82
2022/01/04 11:44:31;;;;;;;14.10;8.23;;;;;;;5.89;95.91;99162.94;10436952;28;20099;-78
2022/01/04 11:49:36;;;;;;;15.10;8.70;;;;;;;6.02;96.27;99188.00;10454004;28;20065;-82
2022/01/04 11:54:37;;;;;;;11.48;6.13;;;;;;;6.32;96.08;99239.22;10419280;28;20037;-84
2022/01/04 11:59:45;;;;;;;6.97;3.92;;;;;;;5.80;97.20;99153.38;10419153;28;20045;-83
2022/01/04 12:04:52;;;;;;;6.38;3.45;;;;;;;5.98;97.02;99186.66;10438025;28;20033;-92
2022/01/04 12:10:19;;;;;;;6.40;3.72;;;;;;;6.96;97.73;99336.84;10432962;28;20056;-83
2022/01/04 12:15:54;;;;;;;4.40;2.80;;;;;;;7.02;98.30;99331.72;10418781;28;20041;-81
2022/01/04 12:20:58;;;;;;;9.45;4.80;;;;;;;5.84;96.45;99133.63;10409839;28;20087;-79
2022/01/04 12:31:17;;;;;;;2.58;0.82;;;;;;;6.52;96.71;99247.56;10435530;28;20176;-88
2022/01/04 12:36:29;;;;;;;2.72;0.80;;;;;;;7.09;97.09;99337.16;10416916;28;20523;-88
2022/01/04 12:41:32;;;;;;;5.68;0.68;;;;;;;6.22;96.73;99223.53;10417917;28;20033;-80
2022/01/04 12:46:38;;;;;;;9.43;0.70;;;;;;;6.51;96.59;99267.03;10417910;28;20045;-82
2022/01/04 12:51:50;;;;;;;3.97;0.68;;;;;;;7.03;96.84;99358.94;10418318;28;20493;-85
2022/01/04 12:56:53;;;;;;;6.95;1.00;;;;;;;6.59;96.23;99306.59;10419171;28;20041;-91
2022/01/04 13:01:55;;;;;;;3.35;0.73;;;;;;;6.94;96.29;99370.53;10419424;28;20041;-88
2022/01/04 13:06:57;;;;;;;1.40;0.75;;;;;;;5.97;96.64;99228.03;10418967;28;20065;-89
2022/01/04 13:12:00;;;;;;;1.45;0.60;;;;;;;5.91;96.91;99221.56;10417475;28;20103;-85
2022/01/04 13:17:09;;;;;;;1.33;0.52;;;;;;;6.84;97.20;99392.66;10421964;28;20044;-94
2022/01/04 13:22:15;;;;;;;4.50;0.63;;;;;;;6.79;96.59;99384.44;10420801;28;20044;-92
2022/01/04 13:27:30;;;;;;;6.38;0.80;;;;;;;6.72;96.85;99388.72;10453344;28;20067;-91
2022/01/04 13:32:34;;;;;;;7.78;0.50;;;;;;;6.57;96.05;99371.91;10456656;28;20041;-82
2022/01/04 13:37:35;;;;;;;1.00;0.40;;;;;;;5.91;96.33;99269.00;10451277;28;20043;-80
2022/01/04 13:42:45;;;;;;;1.92;1.00;;;;;;;4.65;96.19;99094.56;10443975;28;20049;-80
2022/01/04 13:48:00;;;;;;;4.72;2.85;;;;;;;5.79;96.41;99290.59;10487495;28;20078;-80
2022/01/04 13:53:03;;;;;;;5.15;0.88;;;;;;;5.41;95.97;99240.13;10451711;28;20119;-92
2022/01/04 13:58:10;;;;;;;5.50;0.82;;;;;;;5.63;95.92;99279.03;10435247;28;20034;-76
2022/01/04 14:03:30;;;;;;;5.60;0.88;;;;;;;6.30;95.49;99409.97;10439074;28;20095;-78
2022/01/04 14:08:48;;;;;;;2.85;0.80;;;;;;;6.25;96.49;99420.19;10478932;28;20457;-77
2022/01/04 14:13:50;;;;;;;1.50;0.50;;;;;;;6.31;95.90;99432.72;10442710;28;20056;-80
2022/01/04 14:19:21;;;;;;;2.15;0.82;;;;;;;6.10;96.18;99417.34;10447114;28;20500;-77
2022/01/04 14:24:31;;;;;;;5.22;1.13;;;;;;;6.38;95.81;99463.56;10433753;28;20052;-78
2022/01/04 14:29:38;;;;;;;2.42;0.75;;;;;;;6.38;95.94;99465.41;10448581;28;20041;-77
2022/01/04 14:34:39;;;;;;;3.72;0.50;;;;;;;5.78;95.75;99370.66;10451405;28;20579;-76
2022/01/04 14:39:40;;;;;;;0.98;0.30;;;;;;;4.76;94.58;99185.53;10434590;28;20561;-78
2022/01/04 14:44:41;;;;;;;8.73;0.40;;;;;;;6.52;93.68;99462.13;10417014;28;20098;-76
2022/01/04 14:49:42;;;;;;;1.05;0.30;;;;;;;6.01;93.53;99392.78;10448421;28;20137;-79
2022/01/04 14:54:43;;;;;;;1.25;0.40;;;;;;;5.14;93.78;99251.75;10452488;28;20044;-79
2022/01/04 14:59:44;;;;;;;0.82;0.30;;;;;;;6.52;93.72;99492.94;10452368;28;20635;-74
2022/01/04 15:04:45;;;;;;;1.05;0.40;;;;;;;6.40;93.46;99482.72;10454924;28;20178;-74
2022/01/04 15:09:46;;;;;;;1.25;0.57;;;;;;;5.98;93.14;99426.56;10462924;28;20044;-73
2022/01/04 15:14:47;;;;;;;1.05;0.40;;;;;;;6.26;93.25;99500.97;10446722;28;20048;-80
2022/01/04 15:19:48;;;;;;;1.10;0.43;;;;;;;5.48;92.98;99410.56;10419841;28;20060;-77
2022/01/04 15:24:50;;;;;;;1.27;0.40;;;;;;;5.61;93.35;99465.44;10418523;28;20392;-76
2022/01/04 15:29:52;;;;;;;1.23;0.40;;;;;;;5.69;93.38;99520.00;10456349;28;20493;-87
2022/01/04 15:34:53;;;;;;;0.80;0.35;;;;;;;5.67;93.69;99532.50;10456785;28;20045;-77
2022/01/04 15:39:54;;;;;;;1.90;0.60;;;;;;;4.67;93.86;99421.44;10444973;28;20041;-77
2022/01/04 15:44:55;;;;;;;2.60;0.93;;;;;;;5.29;94.28;99526.66;10450293;28;20036;-78
2022/01/04 15:49:57;;;;;;;3.30;0.60;;;;;;;3.67;94.35;99281.41;10459353;28;20551;-81
2022/01/04 15:55:03;;;;;;;1.52;0.70;;;;;;;5.18;95.27;99548.81;10451847;28;20610;-83
2022/01/04 16:00:05;;;;;;;2.70;0.90;;;;;;;5.16;95.17;99542.03;10459244;28;20477;-80
2022/01/04 16:05:08;;;;;;;2.42;1.10;;;;;;;5.18;94.62;99564.59;10459398;28;20426;-77
2022/01/04 16:10:09;;;;;;;2.80;1.38;;;;;;;4.75;94.43;99476.72;10460485;28;20041;-76
2022/01/04 16:15:14;;;;;;;4.60;1.60;;;;;;;5.31;94.33;99558.13;10459980;28;20443;-73
2022/01/04 16:25:35;;;;;;;2.35;1.45;;;;;;;5.55;92.88;99571.44;10457831;28;20033;-78
2022/01/04 16:30:36;;;;;;;3.00;1.55;;;;;;;5.69;92.09;99575.34;10458699;28;20076;-74
2022/01/04 16:35:37;;;;;;;3.20;1.80;;;;;;;4.06;92.15;99328.38;10451228;28;20064;-79
2022/01/04 16:40:38;;;;;;;4.05;1.65;;;;;;;5.60;92.26;99598.16;10432121;28;20738;-74
2022/01/04 16:45:39;;;;;;;4.57;1.50;;;;;;;5.52;92.40;99589.38;10424644;28;20451;-81
2022/01/04 16:50:40;;;;;;;5.70;1.95;;;;;;;4.75;92.50;99454.84;10429217;28;20053;-74
2022/01/04 16:55:41;;;;;;;3.30;1.30;;;;;;;5.40;92.14;99565.09;10431896;28;20045;-74
2022/01/04 17:00:42;;;;;;;3.78;1.50;;;;;;;4.47;92.09;99415.50;10450321;28;20402;-82
2022/01/04 17:05:44;;;;;;;4.65;1.45;;;;;;;4.96;91.90;99499.25;10427788;28;20041;-79
2022/01/04 17:10:57;;;;;;;5.05;1.77;;;;;;;4.61;91.91;99442.22;10445205;28;20051;-79
2022/01/04 17:16:00;;;;;;;3.05;1.60;;;;;;;4.47;91.17;99423.38;10453536;28;20059;-79
2022/01/04 17:21:01;;;;;;;6.65;2.38;;;;;;;5.83;91.93;99642.44;10450568;28;20102;-76
2022/01/04 17:26:02;;;;;;;3.97;1.80;;;;;;;5.98;91.20;99667.28;10448807;28;20049;-79
2022/01/04 17:31:03;;;;;;;4.85;2.40;;;;;;;6.00;91.30;99677.69;10446993;28;20048;-79
2022/01/04 17:36:05;;;;;;;3.95;2.38;;;;;;;5.77;91.27;99637.78;10442050;28;20053;-80
2022/01/04 17:41:05;;;;;;;3.40;1.98;;;;;;;5.80;92.15;99650.66;10424749;28;20045;-81
2022/01/04 17:46:06;;;;;;;3.67;1.70;;;;;;;5.69;92.28;99636.75;10445756;28;20128;-81
2022/01/04 17:51:07;;;;;;;3.63;1.60;;;;;;;5.62;91.82;99632.25;10432839;28;20057;-81
2022/01/04 17:56:09;;;;;;;3.22;1.52;;;;;;;5.89;92.04;99684.84;10416847;28;20056;-81
2022/01/04 18:01:12;;;;;;;2.33;1.30;;;;;;;5.70;92.46;99648.13;10414214;28;20438;-83
2022/01/04 18:06:13;;;;;;;2.67;1.50;;;;;;;5.82;92.24;99660.06;10443557;28;20131;-80
2022/01/04 18:11:14;;;;;;;1.90;1.20;;;;;;;5.51;92.12;99593.00;10451806;28;20048;-82
2022/01/04 18:16:15;;;;;;;4.93;1.00;;;;;;;6.06;92.12;99680.53;10449762;28;20396;-81
2022/01/04 18:21:16;;;;;;;2.08;0.95;;;;;;;5.36;92.67;99561.94;10450856;28;20048;-81
2022/01/04 18:26:17;;;;;;;3.35;0.80;;;;;;;5.64;92.24;99614.50;10451201;28;20489;-83
2022/01/04 18:31:20;;;;;;;2.38;0.93;;;;;;;5.52;92.13;99599.91;10451547;28;20602;-80
2022/01/04 18:36:21;;;;;;;3.28;0.98;;;;;;;6.14;93.04;99729.88;10449113;28;20092;-79
2022/01/04 18:41:22;;;;;;;2.13;1.08;;;;;;;5.08;92.67;99560.38;10451175;28;20496;-82
2022/01/04 18:46:23;;;;;;;1.83;1.00;;;;;;;5.32;92.37;99626.41;10453162;28;20036;-81
2022/01/04 18:51:24;;;;;;;1.85;0.98;;;;;;;6.13;92.35;99765.13;10451201;28;20416;-81
2022/01/04 18:56:25;;;;;;;2.20;0.90;;;;;;;5.94;92.27;99748.50;10452354;28;20048;-82
2022/01/04 19:01:26;;;;;;;1.83;0.90;;;;;;;4.28;92.39;99476.97;10450544;28;20040;-81
2022/01/04 19:06:28;;;;;;;1.90;0.95;;;;;;;5.12;92.58;99627.56;10452614;28;20032;-81
2022/01/04 19:11:29;;;;;;;9.00;1.67;;;;;;;5.40;92.50;99686.25;10449470;28;20534;-83
2022/01/04 19:16:30;;;;;;;2.72;1.17;;;;;;;5.91;92.87;99783.03;10450361;28;20137;-80
2022/01/04 19:21:31;;;;;;;3.47;1.75;;;;;;;5.70;92.51;99772.81;10451966;28;20039;-81
2022/01/04 19:26:32;;;;;;;4.43;2.58;;;;;;;5.44;90.34;99741.13;10452156;28;20029;-82
2022/01/04 19:31:36;;;;;;;5.38;2.42;;;;;;;5.87;89.73;99844.97;10449454;28;20484;-79
2022/01/04 19:36:40;;;;;;;6.25;2.15;;;;;;;5.78;88.94;99827.41;10445181;28;20512;-76
2022/01/04 19:41:41;;;;;;;;;;;;;;;5.75;88.19;99830.34;10454047;28;20053;-80
2022/01/04 19:46:42;;;;;;;4.55;2.20;;;;;;;5.53;87.48;99828.13;10452932;28;19923;-81
2022/01/04 19:51:44;;;;;;;4.93;2.50;;;;;;;5.35;87.55;99839.44;10454572;28;20147;-83
2022/01/04 19:56:45;;;;;;;5.82;3.03;;;;;;;5.21;88.05;99832.06;10444291;28;20083;-81
2022/01/04 20:01:46;;;;;;;9.57;2.70;;;;;;;3.77;88.32;99627.25;10435316;28;20537;-80
2022/01/04 20:06:47;;;;;;;6.85;3.03;;;;;;;5.06;87.93;99844.88;10420826;28;20064;-81
2022/01/04 20:11:48;;;;;;;4.38;2.58;;;;;;;4.46;88.45;99753.13;10418689;28;20045;-80
2022/01/04 20:16:50;;;;;;;5.38;2.90;;;;;;;4.01;87.89;99701.22;10434063;28;20129;-80
2022/01/04 20:21:51;;;;;;;4.45;2.67;;;;;;;3.84;88.77;99691.41;10418705;28;20124;-81
2022/01/04 20:26:52;;;;;;;4.82;3.20;;;;;;;3.92;89.14;99738.84;10418769;28;20079;-80
2022/01/04 20:31:53;;;;;;;6.70;3.35;;;;;;;4.19;88.80;99779.31;10418521;28;20045;-79
2022/01/04 20:36:54;;;;;;;9.00;3.58;;;;;;;3.74;89.17;99708.97;10418226;28;20034;-78
2022/01/04 20:41:55;;;;;;;5.80;3.35;;;;;;;4.23;89.78;99809.63;10417851;28;20417;-79
2022/01/04 20:46:56;;;;;;;6.15;3.28;;;;;;;4.19;89.96;99824.88;10416988;28;20040;-80
2022/01/04 20:51:57;;;;;;;6.38;2.95;;;;;;;4.24;90.24;99834.94;10417388;28;20079;-79
2022/01/04 20:56:58;;;;;;;7.55;3.50;;;;;;;4.37;91.09;99882.84;10415910;28;20084;-80
2022/01/04 21:01:59;;;;;;;6.05;3.20;;;;;;;3.92;90.79;99828.19;10443448;28;20048;-79
2022/01/04 21:07:00;;;;;;;4.78;2.70;;;;;;;4.29;90.94;99890.56;10455870;28;20409;-79
2022/01/04 21:12:01;;;;;;;6.32;2.58;;;;;;;4.37;90.61;99903.00;10458773;28;20053;-80
2022/01/04 21:17:03;;;;;;;3.90;2.25;;;;;;;2.33;90.05;99585.09;10458151;28;20037;-79
2022/01/04 21:22:04;;;;;;;4.75;2.58;;;;;;;4.48;88.92;99921.28;10457927;28;20071;-79
2022/01/04 21:27:06;;;;;;;3.70;2.38;;;;;;;4.44;89.60;99941.78;10457503;28;20037;-79
2022/01/04 21:32:07;;;;;;;4.07;2.10;;;;;;;4.34;88.87;99926.00;10455953;28;20045;-80
2022/01/04 21:37:08;;;;;;;6.88;2.40;;;;;;;3.69;88.55;99845.16;10457533;28;20049;-80
2022/01/04 21:42:09;;;;;;;4.53;2.53;;;;;;;4.24;88.73;99961.97;10456807;28;20037;-80
2022/01/04 21:47:10;;;;;;;7.10;2.47;;;;;;;4.05;88.64;99936.50;10456962;28;20041;-80
2022/01/04 21:52:11;;;;;;;4.80;2.75;;;;;;;3.22;88.19;99822.09;10456521;28;20090;-79
2022/01/04 21:57:12;;;;;;;5.65;2.67;;;;;;;2.97;88.10;99803.25;10456667;28;20083;-79
2022/01/04 22:02:13;;;;;;;5.32;2.63;;;;;;;3.96;87.80;99976.72;10456682;28;20528;-79
2022/01/04 22:07:13;;;;;;;5.72;2.40;;;;;;;2.99;88.22;99810.97;10454712;28;20041;-80
2022/01/04 22:12:15;;;;;;;4.57;2.55;;;;;;;3.84;88.72;99962.03;10455729;28;20033;-80
2022/01/04 22:17:16;;;;;;;4.70;2.72;;;;;;;3.77;88.08;99974.88;10453871;28;20044;-80
2022/01/04 22:22:17;;;;;;;5.10;2.47;;;;;;;3.69;88.03;99977.34;10455399;28;20045;-79
2022/01/04 22:27:17;;;;;;;4.63;2.75;;;;;;;2.94;88.18;99876.16;10454998;28;20045;-79
2022/01/04 22:32:19;;;;;;;4.47;2.80;;;;;;;3.54;88.31;99999.69;10454453;28;20036;-79
2022/01/04 22:37:20;;;;;;;4.72;2.42;;;;;;;2.57;88.62;99855.63;10454675;28;20510;-80
2022/01/04 22:42:21;;;;;;;3.75;2.50;;;;;;;3.36;89.16;100009.94;10454340;28;20051;-80
2022/01/04 22:47:22;;;;;;;5.82;2.50;;;;;;;2.71;89.23;99905.13;10454734;28;20064;-80
2022/01/04 22:52:24;;;;;;;4.57;2.78;;;;;;;2.39;89.11;99892.06;10453839;28;20049;-80
2022/01/04 22:57:26;;;;;;;5.82;2.67;;;;;;;2.20;89.75;99840.34;10454419;28;20059;-80
2022/01/04 23:02:27;;;;;;;5.70;2.53;;;;;;;2.73;89.51;99947.81;10454549;28;20446;-80
2022/01/04 23:07:28;;;;;;;5.20;2.92;;;;;;;2.08;89.34;99833.50;10453918;28;20143;-81
2022/01/04 23:12:29;;;;;;;4.15;2.83;;;;;;;2.85;89.14;99955.63;10453507;28;20033;-80
2022/01/04 23:17:30;;;;;;;4.80;2.63;;;;;;;2.20;88.92;99856.06;10454149;28;20048;-81
2022/01/04 23:22:30;;;;;;;6.72;2.70;;;;;;;2.71;89.43;99949.72;10454144;28;20118;-79
2022/01/04 23:27:31;;;;;;;5.80;3.05;;;;;;;3.06;89.25;100001.06;10457026;28;20080;-83
2022/01/04 23:32:32;;;;;;;6.07;3.22;;;;;;;3.19;89.73;100030.56;10449036;28;20044;-81
2022/01/04 23:37:33;;;;;;;6.63;3.58;;;;;;;2.41;89.84;99884.91;10419924;28;20053;-79
2022/01/04 23:42:34;;;;;;;7.03;3.33;;;;;;;2.28;89.85;99879.03;10420890;28;20052;-79
2022/01/04 23:47:35;;;;;;;4.85;3.00;;;;;;;3.31;89.88;100062.84;10420745;28;20060;-79
2022/01/04 23:52:37;;;;;;;4.88;3.30;;;;;;;2.60;89.59;99977.78;10419394;28;20482;-79
2022/01/04 23:57:37;;;;;;;5.22;3.47;;;;;;;3.16;90.39;100077.22;10419779;28;20045;-79
